sensor_id;sensor_type;location;lat;lon;timestamp;temperature;humidity
28071;DHT22;15383;48.408;9.968;2023-08-08T00:02:22;18.00;84.30
28071;DHT22;15383;48.408;9.968;2023-08-08T00:04:49;18.00;84.30
28071;DHT22;15383;48.408;9.968;2023-08-08T00:07:16;18.00;84.30
28071;DHT22;15383;48.408;9.968;2023-08-08T00:09:42;18.00;84.30
28071;DHT22;15383;48.408;9.968;2023-08-08T00:12:07;18.00;84.30
28071;DHT22;15383;48.408;9.968;2023-08-08T00:14:33;18.00;84.30
28071;DHT22;15383;48.408;9.968;2023-08-08T00:16:59;18.00;84.30
28071;DHT22;15383;48.408;9.968;2023-08-08T00:19:24;17.90;84.30
28071;DHT22;15383;48.408;9.968;2023-08-08T00:21:50;18.10;84.40
28071;DHT22;15383;48.408;9.968;2023-08-08T00:24:16;18.00;84.30
28071;DHT22;15383;48.408;9.968;2023-08-08T00:26:41;18.00;84.30
28071;DHT22;15383;48.408;9.968;2023-08-08T00:29:07;18.00;84.40
28071;DHT22;15383;48.408;9.968;2023-08-08T00:31:33;18.00;85.10
28071;DHT22;15383;48.408;9.968;2023-08-08T00:33:58;18.00;84.40
28071;DHT22;15383;48.408;9.968;2023-08-08T00:36:24;17.60;84.20
28071;DHT22;15383;48.408;9.968;2023-08-08T00:38:50;17.90;84.40
28071;DHT22;15383;48.408;9.968;2023-08-08T00:41:16;18.00;84.40
28071;DHT22;15383;48.408;9.968;2023-08-08T00:43:41;17.90;84.40
28071;DHT22;15383;48.408;9.968;2023-08-08T00:46:09;18.00;84.40
28071;DHT22;15383;48.408;9.968;2023-08-08T00:48:34;17.90;84.40
28071;DHT22;15383;48.408;9.968;2023-08-08T00:51:03;17.90;84.40
28071;DHT22;15383;48.408;9.968;2023-08-08T00:53:30;17.90;84.40
28071;DHT22;15383;48.408;9.968;2023-08-08T00:55:58;17.90;84.40
28071;DHT22;15383;48.408;9.968;2023-08-08T00:58:24;17.90;84.40
28071;DHT22;15383;48.408;9.968;2023-08-08T01:00:50;17.90;84.40
28071;DHT22;15383;48.408;9.968;2023-08-08T01:03:20;17.90;84.40
28071;DHT22;15383;48.408;9.968;2023-08-08T01:05:56;17.90;84.40
28071;DHT22;15383;48.408;9.968;2023-08-08T01:08:39;17.90;84.50
28071;DHT22;15383;48.408;9.968;2023-08-08T01:11:07;18.20;84.70
28071;DHT22;15383;48.408;9.968;2023-08-08T01:13:34;17.90;84.50
28071;DHT22;15383;48.408;9.968;2023-08-08T01:16:03;17.90;84.50
28071;DHT22;15383;48.408;9.968;2023-08-08T01:18:32;17.90;84.50
28071;DHT22;15383;48.408;9.968;2023-08-08T01:20:58;17.90;84.60
28071;DHT22;15383;48.408;9.968;2023-08-08T01:23:34;18.20;84.70
28071;DHT22;15383;48.408;9.968;2023-08-08T01:26:06;17.90;84.50
28071;DHT22;15383;48.408;9.968;2023-08-08T01:28:34;17.90;84.60
28071;DHT22;15383;48.408;9.968;2023-08-08T01:31:00;17.90;84.60
28071;DHT22;15383;48.408;9.968;2023-08-08T01:33:28;17.90;84.60
28071;DHT22;15383;48.408;9.968;2023-08-08T01:35:58;17.90;84.60
28071;DHT22;15383;48.408;9.968;2023-08-08T01:38:28;17.90;84.60
28071;DHT22;15383;48.408;9.968;2023-08-08T01:40:56;17.90;84.60
28071;DHT22;15383;48.408;9.968;2023-08-08T01:43:23;17.90;84.60
28071;DHT22;15383;48.408;9.968;2023-08-08T01:45:50;17.90;84.60
28071;DHT22;15383;48.408;9.968;2023-08-08T01:48:16;17.90;84.60
28071;DHT22;15383;48.408;9.968;2023-08-08T01:50:44;17.90;84.70
28071;DHT22;15383;48.408;9.968;2023-08-08T01:53:10;17.90;84.70
28071;DHT22;15383;48.408;9.968;2023-08-08T01:55:37;17.90;84.70
28071;DHT22;15383;48.408;9.968;2023-08-08T01:58:03;17.90;84.70
28071;DHT22;15383;48.408;9.968;2023-08-08T02:00:29;17.90;85.50
28071;DHT22;15383;48.408;9.968;2023-08-08T02:02:54;17.90;84.70
28071;DHT22;15383;48.408;9.968;2023-08-08T02:05:20;17.90;84.80
28071;DHT22;15383;48.408;9.968;2023-08-08T02:07:46;17.80;84.70
28071;DHT22;15383;48.408;9.968;2023-08-08T02:10:12;17.90;84.80
28071;DHT22;15383;48.408;9.968;2023-08-08T02:12:37;18.30;85.80
28071;DHT22;15383;48.408;9.968;2023-08-08T02:15:03;17.90;84.80
28071;DHT22;15383;48.408;9.968;2023-08-08T02:17:30;17.90;84.80
28071;DHT22;15383;48.408;9.968;2023-08-08T02:19:55;17.90;84.80
28071;DHT22;15383;48.408;9.968;2023-08-08T02:22:22;17.80;84.80
28071;DHT22;15383;48.408;9.968;2023-08-08T02:24:48;17.90;84.90
28071;DHT22;15383;48.408;9.968;2023-08-08T02:27:13;18.10;85.00
28071;DHT22;15383;48.408;9.968;2023-08-08T02:29:39;17.80;84.90
28071;DHT22;15383;48.408;9.968;2023-08-08T02:32:05;17.90;84.90
28071;DHT22;15383;48.408;9.968;2023-08-08T02:34:31;17.90;84.90
28071;DHT22;15383;48.408;9.968;2023-08-08T02:36:57;17.90;84.90
28071;DHT22;15383;48.408;9.968;2023-08-08T02:39:25;17.90;84.90
28071;DHT22;15383;48.408;9.968;2023-08-08T02:41:55;17.80;84.90
28071;DHT22;15383;48.408;9.968;2023-08-08T02:44:23;17.80;84.90
28071;DHT22;15383;48.408;9.968;2023-08-08T02:46:49;17.80;84.90
28071;DHT22;15383;48.408;9.968;2023-08-08T02:49:15;17.80;85.00
28071;DHT22;15383;48.408;9.968;2023-08-08T02:51:40;17.90;85.00
28071;DHT22;15383;48.408;9.968;2023-08-08T02:54:06;17.80;85.00
28071;DHT22;15383;48.408;9.968;2023-08-08T02:56:32;17.80;85.00
28071;DHT22;15383;48.408;9.968;2023-08-08T02:58:57;17.80;85.00
28071;DHT22;15383;48.408;9.968;2023-08-08T03:01:23;17.80;85.00
28071;DHT22;15383;48.408;9.968;2023-08-08T03:03:49;17.80;85.00
28071;DHT22;15383;48.408;9.968;2023-08-08T03:06:15;17.80;85.00
28071;DHT22;15383;48.408;9.968;2023-08-08T03:08:41;17.80;85.00
28071;DHT22;15383;48.408;9.968;2023-08-08T03:11:06;17.80;85.00
28071;DHT22;15383;48.408;9.968;2023-08-08T03:13:32;17.80;85.00
28071;DHT22;15383;48.408;9.968;2023-08-08T03:15:58;17.80;85.10
28071;DHT22;15383;48.408;9.968;2023-08-08T03:18:23;18.20;85.30
28071;DHT22;15383;48.408;9.968;2023-08-08T03:20:51;17.80;85.10
28071;DHT22;15383;48.408;9.968;2023-08-08T03:23:18;17.80;85.10
28071;DHT22;15383;48.408;9.968;2023-08-08T03:25:44;17.80;85.10
28071;DHT22;15383;48.408;9.968;2023-08-08T03:28:09;17.90;85.30
28071;DHT22;15383;48.408;9.968;2023-08-08T03:30:38;17.80;85.20
28071;DHT22;15383;48.408;9.968;2023-08-08T03:33:04;17.80;85.20
28071;DHT22;15383;48.408;9.968;2023-08-08T03:35:32;17.80;85.20
28071;DHT22;15383;48.408;9.968;2023-08-08T03:37:58;17.80;85.20
28071;DHT22;15383;48.408;9.968;2023-08-08T03:40:24;17.70;85.10
28071;DHT22;15383;48.408;9.968;2023-08-08T03:42:50;17.80;85.20
28071;DHT22;15383;48.408;9.968;2023-08-08T03:45:15;17.90;85.30
28071;DHT22;15383;48.408;9.968;2023-08-08T03:47:41;17.80;85.20
28071;DHT22;15383;48.408;9.968;2023-08-08T03:50:07;17.80;85.30
28071;DHT22;15383;48.408;9.968;2023-08-08T03:52:34;17.80;85.30
28071;DHT22;15383;48.408;9.968;2023-08-08T03:55:03;18.40;85.70
28071;DHT22;15383;48.408;9.968;2023-08-08T03:57:29;17.80;85.30
28071;DHT22;15383;48.408;9.968;2023-08-08T03:59:54;18.00;85.40
28071;DHT22;15383;48.408;9.968;2023-08-08T04:02:23;17.80;85.30
28071;DHT22;15383;48.408;9.968;2023-08-08T04:04:48;17.80;85.40
28071;DHT22;15383;48.408;9.968;2023-08-08T04:07:14;17.80;85.40
28071;DHT22;15383;48.408;9.968;2023-08-08T04:09:42;17.80;86.20
28071;DHT22;15383;48.408;9.968;2023-08-08T04:12:08;17.80;85.40
28071;DHT22;15383;48.408;9.968;2023-08-08T04:14:36;17.80;85.40
28071;DHT22;15383;48.408;9.968;2023-08-08T04:17:02;17.80;85.40
28071;DHT22;15383;48.408;9.968;2023-08-08T04:19:36;17.80;85.40
28071;DHT22;15383;48.408;9.968;2023-08-08T04:22:02;17.80;85.50
28071;DHT22;15383;48.408;9.968;2023-08-08T04:24:27;17.80;85.40
28071;DHT22;15383;48.408;9.968;2023-08-08T04:26:53;17.80;85.50
28071;DHT22;15383;48.408;9.968;2023-08-08T04:29:19;17.80;85.50
28071;DHT22;15383;48.408;9.968;2023-08-08T04:31:47;17.80;85.50
28071;DHT22;15383;48.408;9.968;2023-08-08T04:34:20;17.80;85.50
28071;DHT22;15383;48.408;9.968;2023-08-08T04:37:06;17.80;85.50
28071;DHT22;15383;48.408;9.968;2023-08-08T04:39:35;17.80;85.60
28071;DHT22;15383;48.408;9.968;2023-08-08T04:42:17;17.80;85.40
28071;DHT22;15383;48.408;9.968;2023-08-08T04:45:23;17.70;85.00
28071;DHT22;15383;48.408;9.968;2023-08-08T04:51:20;17.80;85.40
28071;DHT22;15383;48.408;9.968;2023-08-08T05:03:47;18.20;85.80
28071;DHT22;15383;48.408;9.968;2023-08-08T05:06:41;17.70;85.50
28071;DHT22;15383;48.408;9.968;2023-08-08T05:09:36;17.80;85.60
28071;DHT22;15383;48.408;9.968;2023-08-08T05:16:04;17.80;85.60
28071;DHT22;15383;48.408;9.968;2023-08-08T05:19:21;17.80;85.70
28071;DHT22;15383;48.408;9.968;2023-08-08T05:22:24;17.80;85.60
28071;DHT22;15383;48.408;9.968;2023-08-08T05:28:00;17.80;85.70
28071;DHT22;15383;48.408;9.968;2023-08-08T05:30:38;17.80;85.70
28071;DHT22;15383;48.408;9.968;2023-08-08T05:37:32;17.80;85.90
28071;DHT22;15383;48.408;9.968;2023-08-08T05:40:30;17.80;85.90
28071;DHT22;15383;48.408;9.968;2023-08-08T05:43:43;17.80;85.80
28071;DHT22;15383;48.408;9.968;2023-08-08T05:46:48;17.80;85.80
28071;DHT22;15383;48.408;9.968;2023-08-08T05:49:53;17.80;85.90
28071;DHT22;15383;48.408;9.968;2023-08-08T05:52:41;17.80;85.90
28071;DHT22;15383;48.408;9.968;2023-08-08T05:59:11;17.80;86.00
28071;DHT22;15383;48.408;9.968;2023-08-08T06:05:45;17.80;85.90
28071;DHT22;15383;48.408;9.968;2023-08-08T06:22:53;17.90;85.80
28071;DHT22;15383;48.408;9.968;2023-08-08T06:25:18;17.90;85.90
28071;DHT22;15383;48.408;9.968;2023-08-08T06:30:42;18.40;86.20
28071;DHT22;15383;48.408;9.968;2023-08-08T06:33:28;17.90;85.80
28071;DHT22;15383;48.408;9.968;2023-08-08T06:36:25;17.90;85.80
28071;DHT22;15383;48.408;9.968;2023-08-08T06:38:50;18.00;86.10
28071;DHT22;15383;48.408;9.968;2023-08-08T06:41:16;18.00;86.00
28071;DHT22;15383;48.408;9.968;2023-08-08T06:43:42;17.90;86.00
28071;DHT22;15383;48.408;9.968;2023-08-08T06:46:07;17.50;85.80
28071;DHT22;15383;48.408;9.968;2023-08-08T06:48:33;18.00;86.20
28071;DHT22;15383;48.408;9.968;2023-08-08T06:50:59;18.00;86.10
28071;DHT22;15383;48.408;9.968;2023-08-08T06:53:24;18.00;86.10
28071;DHT22;15383;48.408;9.968;2023-08-08T06:55:50;18.00;86.20
28071;DHT22;15383;48.408;9.968;2023-08-08T06:58:16;18.00;86.20
28071;DHT22;15383;48.408;9.968;2023-08-08T07:00:42;18.00;86.30
28071;DHT22;15383;48.408;9.968;2023-08-08T07:03:08;18.00;86.30
28071;DHT22;15383;48.408;9.968;2023-08-08T07:05:33;18.00;86.30
28071;DHT22;15383;48.408;9.968;2023-08-08T07:07:59;18.00;86.30
28071;DHT22;15383;48.408;9.968;2023-08-08T07:10:24;18.00;86.30
28071;DHT22;15383;48.408;9.968;2023-08-08T07:12:50;18.00;86.30
28071;DHT22;15383;48.408;9.968;2023-08-08T07:15:15;18.00;86.30
28071;DHT22;15383;48.408;9.968;2023-08-08T07:17:41;18.00;86.40
28071;DHT22;15383;48.408;9.968;2023-08-08T07:20:07;18.00;86.50
28071;DHT22;15383;48.408;9.968;2023-08-08T07:22:33;18.00;86.40
28071;DHT22;15383;48.408;9.968;2023-08-08T07:24:59;18.10;86.50
28071;DHT22;15383;48.408;9.968;2023-08-08T07:27:26;18.00;86.50
28071;DHT22;15383;48.408;9.968;2023-08-08T07:29:52;18.00;86.50
28071;DHT22;15383;48.408;9.968;2023-08-08T07:32:17;18.00;86.50
28071;DHT22;15383;48.408;9.968;2023-08-08T07:34:43;18.00;86.60
28071;DHT22;15383;48.408;9.968;2023-08-08T07:37:08;18.00;86.50
28071;DHT22;15383;48.408;9.968;2023-08-08T07:39:34;18.00;86.50
28071;DHT22;15383;48.408;9.968;2023-08-08T07:42:00;18.10;86.60
28071;DHT22;15383;48.408;9.968;2023-08-08T07:44:25;18.10;86.60
28071;DHT22;15383;48.408;9.968;2023-08-08T07:46:51;18.10;86.70
28071;DHT22;15383;48.408;9.968;2023-08-08T07:49:17;18.10;86.70
28071;DHT22;15383;48.408;9.968;2023-08-08T07:51:42;18.10;86.80
28071;DHT22;15383;48.408;9.968;2023-08-08T07:54:14;18.10;86.70
28071;DHT22;15383;48.408;9.968;2023-08-08T07:56:40;17.90;86.60
28071;DHT22;15383;48.408;9.968;2023-08-08T07:59:05;18.50;87.20
28071;DHT22;15383;48.408;9.968;2023-08-08T08:01:31;18.10;86.90
28071;DHT22;15383;48.408;9.968;2023-08-08T08:03:56;18.10;87.00
28071;DHT22;15383;48.408;9.968;2023-08-08T08:06:22;18.10;87.00
28071;DHT22;15383;48.408;9.968;2023-08-08T08:08:48;18.10;87.70
28071;DHT22;15383;48.408;9.968;2023-08-08T08:11:14;18.10;86.90
28071;DHT22;15383;48.408;9.968;2023-08-08T08:13:41;18.10;87.00
28071;DHT22;15383;48.408;9.968;2023-08-08T08:16:07;18.10;87.00
28071;DHT22;15383;48.408;9.968;2023-08-08T08:18:32;18.10;87.00
28071;DHT22;15383;48.408;9.968;2023-08-08T08:20:59;18.10;87.10
28071;DHT22;15383;48.408;9.968;2023-08-08T08:23:24;18.10;86.90
28071;DHT22;15383;48.408;9.968;2023-08-08T08:25:50;18.20;87.10
28071;DHT22;15383;48.408;9.968;2023-08-08T08:28:16;18.20;87.10
28071;DHT22;15383;48.408;9.968;2023-08-08T08:30:42;18.10;87.00
28071;DHT22;15383;48.408;9.968;2023-08-08T08:33:08;18.20;87.10
28071;DHT22;15383;48.408;9.968;2023-08-08T08:35:37;18.20;87.10
28071;DHT22;15383;48.408;9.968;2023-08-08T08:38:03;18.10;87.10
28071;DHT22;15383;48.408;9.968;2023-08-08T08:40:32;18.10;87.10
28071;DHT22;15383;48.408;9.968;2023-08-08T08:42:59;18.20;87.20
28071;DHT22;15383;48.408;9.968;2023-08-08T08:45:25;18.20;87.20
28071;DHT22;15383;48.408;9.968;2023-08-08T08:47:55;18.10;87.10
28071;DHT22;15383;48.408;9.968;2023-08-08T08:50:23;18.30;87.20
28071;DHT22;15383;48.408;9.968;2023-08-08T08:52:55;18.20;87.10
28071;DHT22;15383;48.408;9.968;2023-08-08T08:55:22;18.10;87.10
28071;DHT22;15383;48.408;9.968;2023-08-08T08:57:49;18.10;87.10
28071;DHT22;15383;48.408;9.968;2023-08-08T09:00:15;18.20;87.30
28071;DHT22;15383;48.408;9.968;2023-08-08T09:02:41;18.10;87.20
28071;DHT22;15383;48.408;9.968;2023-08-08T09:05:07;19.20;87.90
28071;DHT22;15383;48.408;9.968;2023-08-08T09:07:34;18.20;87.30
28071;DHT22;15383;48.408;9.968;2023-08-08T09:10:01;18.20;87.30
28071;DHT22;15383;48.408;9.968;2023-08-08T09:12:27;18.20;87.30
28071;DHT22;15383;48.408;9.968;2023-08-08T09:14:56;18.20;87.30
28071;DHT22;15383;48.408;9.968;2023-08-08T09:17:22;18.20;88.10
28071;DHT22;15383;48.408;9.968;2023-08-08T09:19:49;18.20;87.50
28071;DHT22;15383;48.408;9.968;2023-08-08T09:22:15;18.20;87.50
28071;DHT22;15383;48.408;9.968;2023-08-08T09:24:42;18.20;87.50
28071;DHT22;15383;48.408;9.968;2023-08-08T09:27:08;18.20;87.50
28071;DHT22;15383;48.408;9.968;2023-08-08T09:29:35;18.20;87.40
28071;DHT22;15383;48.408;9.968;2023-08-08T09:32:03;18.20;87.40
28071;DHT22;15383;48.408;9.968;2023-08-08T09:34:29;18.20;87.30
28071;DHT22;15383;48.408;9.968;2023-08-08T09:36:55;18.20;87.30
28071;DHT22;15383;48.408;9.968;2023-08-08T09:39:21;18.20;87.30
28071;DHT22;15383;48.408;9.968;2023-08-08T09:41:47;18.20;87.30
28071;DHT22;15383;48.408;9.968;2023-08-08T09:44:13;18.20;87.30
28071;DHT22;15383;48.408;9.968;2023-08-08T09:46:39;18.30;87.40
28071;DHT22;15383;48.408;9.968;2023-08-08T09:49:05;18.20;87.30
28071;DHT22;15383;48.408;9.968;2023-08-08T09:51:31;18.20;87.30
28071;DHT22;15383;48.408;9.968;2023-08-08T09:53:59;18.30;87.40
28071;DHT22;15383;48.408;9.968;2023-08-08T09:56:25;18.20;87.20
28071;DHT22;15383;48.408;9.968;2023-08-08T09:58:52;18.40;87.30
28071;DHT22;15383;48.408;9.968;2023-08-08T10:01:19;18.30;87.20
28071;DHT22;15383;48.408;9.968;2023-08-08T10:03:45;18.20;87.20
28071;DHT22;15383;48.408;9.968;2023-08-08T10:06:11;18.20;87.20
28071;DHT22;15383;48.408;9.968;2023-08-08T10:08:37;18.30;87.40
28071;DHT22;15383;48.408;9.968;2023-08-08T10:11:03;18.30;87.20
28071;DHT22;15383;48.408;9.968;2023-08-08T10:13:30;18.30;87.10
28071;DHT22;15383;48.408;9.968;2023-08-08T10:15:56;18.20;87.00
28071;DHT22;15383;48.408;9.968;2023-08-08T10:18:22;18.30;87.10
28071;DHT22;15383;48.408;9.968;2023-08-08T10:20:49;18.30;87.10
28071;DHT22;15383;48.408;9.968;2023-08-08T10:23:16;18.30;87.10
28071;DHT22;15383;48.408;9.968;2023-08-08T10:25:51;18.30;87.00
28071;DHT22;15383;48.408;9.968;2023-08-08T10:28:20;18.30;86.70
28071;DHT22;15383;48.408;9.968;2023-08-08T10:30:56;18.30;87.20
28071;DHT22;15383;48.408;9.968;2023-08-08T10:33:24;18.30;86.60
28071;DHT22;15383;48.408;9.968;2023-08-08T10:38:23;18.30;86.30
28071;DHT22;15383;48.408;9.968;2023-08-08T10:40:57;18.30;86.30
28071;DHT22;15383;48.408;9.968;2023-08-08T10:43:28;18.30;86.60
28071;DHT22;15383;48.408;9.968;2023-08-08T10:46:00;18.40;86.40
28071;DHT22;15383;48.408;9.968;2023-08-08T10:48:27;18.40;86.40
28071;DHT22;15383;48.408;9.968;2023-08-08T10:50:58;18.30;86.20
28071;DHT22;15383;48.408;9.968;2023-08-08T10:53:30;18.40;86.20
28071;DHT22;15383;48.408;9.968;2023-08-08T10:56:00;18.30;86.30
28071;DHT22;15383;48.408;9.968;2023-08-08T10:58:42;18.30;86.30
28071;DHT22;15383;48.408;9.968;2023-08-08T11:01:12;18.40;86.50
28071;DHT22;15383;48.408;9.968;2023-08-08T11:03:40;18.40;86.50
28071;DHT22;15383;48.408;9.968;2023-08-08T11:06:07;18.40;86.10
28071;DHT22;15383;48.408;9.968;2023-08-08T11:08:34;18.40;85.80
28071;DHT22;15383;48.408;9.968;2023-08-08T11:11:02;18.40;86.20
28071;DHT22;15383;48.408;9.968;2023-08-08T11:13:29;18.40;86.30
28071;DHT22;15383;48.408;9.968;2023-08-08T11:15:54;18.40;86.20
28071;DHT22;15383;48.408;9.968;2023-08-08T11:18:20;18.50;86.40
28071;DHT22;15383;48.408;9.968;2023-08-08T11:20:48;18.40;86.30
28071;DHT22;15383;48.408;9.968;2023-08-08T11:23:14;18.40;86.20
28071;DHT22;15383;48.408;9.968;2023-08-08T11:25:41;18.40;86.20
28071;DHT22;15383;48.408;9.968;2023-08-08T11:28:08;18.40;86.20
28071;DHT22;15383;48.408;9.968;2023-08-08T11:30:36;18.50;86.30
28071;DHT22;15383;48.408;9.968;2023-08-08T11:33:06;18.40;86.20
28071;DHT22;15383;48.408;9.968;2023-08-08T11:35:32;18.40;86.20
28071;DHT22;15383;48.408;9.968;2023-08-08T11:37:59;18.50;86.20
28071;DHT22;15383;48.408;9.968;2023-08-08T11:40:27;18.40;86.20
28071;DHT22;15383;48.408;9.968;2023-08-08T11:42:54;18.50;86.30
28071;DHT22;15383;48.408;9.968;2023-08-08T11:45:21;18.50;86.10
28071;DHT22;15383;48.408;9.968;2023-08-08T11:47:50;18.40;86.20
28071;DHT22;15383;48.408;9.968;2023-08-08T11:50:19;18.40;86.20
28071;DHT22;15383;48.408;9.968;2023-08-08T11:52:46;18.50;86.30
28071;DHT22;15383;48.408;9.968;2023-08-08T11:55:12;18.50;86.30
28071;DHT22;15383;48.408;9.968;2023-08-08T11:57:39;18.50;86.30
28071;DHT22;15383;48.408;9.968;2023-08-08T12:00:06;18.40;86.40
28071;DHT22;15383;48.408;9.968;2023-08-08T12:02:33;18.40;86.30
28071;DHT22;15383;48.408;9.968;2023-08-08T12:05:10;18.50;86.20
28071;DHT22;15383;48.408;9.968;2023-08-08T12:07:42;18.50;86.20
28071;DHT22;15383;48.408;9.968;2023-08-08T12:10:18;18.50;86.30
28071;DHT22;15383;48.408;9.968;2023-08-08T12:12:45;18.50;85.90
28071;DHT22;15383;48.408;9.968;2023-08-08T12:15:11;18.50;85.90
28071;DHT22;15383;48.408;9.968;2023-08-08T12:17:37;18.50;86.10
28071;DHT22;15383;48.408;9.968;2023-08-08T12:20:04;18.50;86.00
28071;DHT22;15383;48.408;9.968;2023-08-08T12:22:33;18.50;85.70
28071;DHT22;15383;48.408;9.968;2023-08-08T12:24:59;18.50;85.70
28071;DHT22;15383;48.408;9.968;2023-08-08T12:27:25;18.50;85.90
28071;DHT22;15383;48.408;9.968;2023-08-08T12:29:51;18.50;85.80
28071;DHT22;15383;48.408;9.968;2023-08-08T12:32:22;18.50;85.90
28071;DHT22;15383;48.408;9.968;2023-08-08T12:34:49;18.50;86.10
28071;DHT22;15383;48.408;9.968;2023-08-08T12:37:15;18.60;86.30
28071;DHT22;15383;48.408;9.968;2023-08-08T12:39:41;18.50;85.90
28071;DHT22;15383;48.408;9.968;2023-08-08T12:42:07;18.60;86.00
28071;DHT22;15383;48.408;9.968;2023-08-08T12:44:33;18.60;86.00
28071;DHT22;15383;48.408;9.968;2023-08-08T12:46:58;18.60;86.80
28071;DHT22;15383;48.408;9.968;2023-08-08T12:49:24;18.60;85.80
28071;DHT22;15383;48.408;9.968;2023-08-08T12:51:50;18.50;85.80
28071;DHT22;15383;48.408;9.968;2023-08-08T12:54:16;18.60;85.20
28071;DHT22;15383;48.408;9.968;2023-08-08T12:56:41;18.50;85.70
28071;DHT22;15383;48.408;9.968;2023-08-08T12:59:08;18.60;85.90
28071;DHT22;15383;48.408;9.968;2023-08-08T13:01:34;18.60;86.60
28071;DHT22;15383;48.408;9.968;2023-08-08T13:03:59;18.60;85.80
28071;DHT22;15383;48.408;9.968;2023-08-08T13:06:25;18.70;85.80
28071;DHT22;15383;48.408;9.968;2023-08-08T13:08:50;18.60;85.80
28071;DHT22;15383;48.408;9.968;2023-08-08T13:11:16;18.60;85.80
28071;DHT22;15383;48.408;9.968;2023-08-08T13:13:42;18.60;85.70
28071;DHT22;15383;48.408;9.968;2023-08-08T13:16:07;18.60;85.70
28071;DHT22;15383;48.408;9.968;2023-08-08T13:18:33;18.60;85.60
28071;DHT22;15383;48.408;9.968;2023-08-08T13:20:58;18.60;85.60
28071;DHT22;15383;48.408;9.968;2023-08-08T13:23:24;18.60;85.70
28071;DHT22;15383;48.408;9.968;2023-08-08T13:25:50;18.60;85.60
28071;DHT22;15383;48.408;9.968;2023-08-08T13:28:16;18.50;84.60
28071;DHT22;15383;48.408;9.968;2023-08-08T13:30:42;18.50;85.00
28071;DHT22;15383;48.408;9.968;2023-08-08T13:33:09;18.50;84.80
28071;DHT22;15383;48.408;9.968;2023-08-08T13:35:35;18.60;85.00
28071;DHT22;15383;48.408;9.968;2023-08-08T13:38:00;18.50;85.20
28071;DHT22;15383;48.408;9.968;2023-08-08T13:40:26;18.50;85.30
28071;DHT22;15383;48.408;9.968;2023-08-08T13:42:52;18.60;85.10
28071;DHT22;15383;48.408;9.968;2023-08-08T13:45:19;18.60;83.90
28071;DHT22;15383;48.408;9.968;2023-08-08T13:47:49;18.60;85.20
28071;DHT22;15383;48.408;9.968;2023-08-08T13:50:15;18.60;85.10
28071;DHT22;15383;48.408;9.968;2023-08-08T13:52:41;18.50;85.00
28071;DHT22;15383;48.408;9.968;2023-08-08T13:55:07;18.60;85.10
28071;DHT22;15383;48.408;9.968;2023-08-08T13:57:34;18.60;85.10
28071;DHT22;15383;48.408;9.968;2023-08-08T14:00:00;18.60;85.30
28071;DHT22;15383;48.408;9.968;2023-08-08T14:02:25;18.60;85.30
28071;DHT22;15383;48.408;9.968;2023-08-08T14:04:51;18.60;85.30
28071;DHT22;15383;48.408;9.968;2023-08-08T14:07:18;18.60;84.50
28071;DHT22;15383;48.408;9.968;2023-08-08T14:09:43;18.80;78.50
28071;DHT22;15383;48.408;9.968;2023-08-08T14:12:09;19.00;75.40
28071;DHT22;15383;48.408;9.968;2023-08-08T14:14:34;19.10;73.80
28071;DHT22;15383;48.408;9.968;2023-08-08T14:17:00;19.00;72.20
28071;DHT22;15383;48.408;9.968;2023-08-08T14:19:25;19.00;71.80
28071;DHT22;15383;48.408;9.968;2023-08-08T14:21:51;19.00;71.20
28071;DHT22;15383;48.408;9.968;2023-08-08T14:24:16;19.00;70.10
28071;DHT22;15383;48.408;9.968;2023-08-08T14:26:42;18.90;70.70
28071;DHT22;15383;48.408;9.968;2023-08-08T14:29:08;18.90;70.80
28071;DHT22;15383;48.408;9.968;2023-08-08T14:31:33;19.00;69.50
28071;DHT22;15383;48.408;9.968;2023-08-08T14:33:59;19.00;69.20
28071;DHT22;15383;48.408;9.968;2023-08-08T14:36:24;18.90;70.50
28071;DHT22;15383;48.408;9.968;2023-08-08T14:38:50;19.00;70.40
28071;DHT22;15383;48.408;9.968;2023-08-08T14:41:15;18.90;70.30
28071;DHT22;15383;48.408;9.968;2023-08-08T14:43:41;19.00;70.20
28071;DHT22;15383;48.408;9.968;2023-08-08T14:46:06;19.00;70.10
28071;DHT22;15383;48.408;9.968;2023-08-08T14:48:32;19.00;69.40
28071;DHT22;15383;48.408;9.968;2023-08-08T14:51:00;18.90;69.30
28071;DHT22;15383;48.408;9.968;2023-08-08T14:53:25;19.00;68.70
28071;DHT22;15383;48.408;9.968;2023-08-08T14:55:51;19.00;67.70
28071;DHT22;15383;48.408;9.968;2023-08-08T14:58:16;19.00;67.80
28071;DHT22;15383;48.408;9.968;2023-08-08T15:00:42;19.00;67.50
28071;DHT22;15383;48.408;9.968;2023-08-08T15:03:08;18.60;67.50
28071;DHT22;15383;48.408;9.968;2023-08-08T15:05:33;19.10;68.80
28071;DHT22;15383;48.408;9.968;2023-08-08T15:07:59;19.10;66.90
28071;DHT22;15383;48.408;9.968;2023-08-08T15:10:24;19.10;65.80
28071;DHT22;15383;48.408;9.968;2023-08-08T15:12:50;19.10;66.20
28071;DHT22;15383;48.408;9.968;2023-08-08T15:15:15;19.00;66.20
28071;DHT22;15383;48.408;9.968;2023-08-08T15:17:42;18.90;66.70
28071;DHT22;15383;48.408;9.968;2023-08-08T15:20:09;18.90;66.20
28071;DHT22;15383;48.408;9.968;2023-08-08T15:22:35;18.90;66.40
28071;DHT22;15383;48.408;9.968;2023-08-08T15:25:00;18.80;66.30
28071;DHT22;15383;48.408;9.968;2023-08-08T15:27:26;18.80;66.10
28071;DHT22;15383;48.408;9.968;2023-08-08T15:29:51;18.80;66.00
28071;DHT22;15383;48.408;9.968;2023-08-08T15:32:17;18.80;66.00
28071;DHT22;15383;48.408;9.968;2023-08-08T15:34:43;18.80;66.60
28071;DHT22;15383;48.408;9.968;2023-08-08T15:37:09;18.80;66.80
28071;DHT22;15383;48.408;9.968;2023-08-08T15:39:37;18.70;66.90
28071;DHT22;15383;48.408;9.968;2023-08-08T15:42:02;18.70;67.40
28071;DHT22;15383;48.408;9.968;2023-08-08T15:44:28;18.70;67.60
28071;DHT22;15383;48.408;9.968;2023-08-08T15:46:54;18.70;67.80
28071;DHT22;15383;48.408;9.968;2023-08-08T15:49:19;18.70;68.00
28071;DHT22;15383;48.408;9.968;2023-08-08T15:51:45;18.70;68.30
28071;DHT22;15383;48.408;9.968;2023-08-08T15:54:11;18.70;69.20
28071;DHT22;15383;48.408;9.968;2023-08-08T15:56:37;18.80;68.40
28071;DHT22;15383;48.408;9.968;2023-08-08T15:59:04;18.80;68.60
28071;DHT22;15383;48.408;9.968;2023-08-08T16:01:29;18.80;68.40
28071;DHT22;15383;48.408;9.968;2023-08-08T16:03:55;18.80;68.40
28071;DHT22;15383;48.408;9.968;2023-08-08T16:06:21;18.80;68.80
28071;DHT22;15383;48.408;9.968;2023-08-08T16:08:46;18.80;68.60
28071;DHT22;15383;48.408;9.968;2023-08-08T16:11:12;18.90;68.90
28071;DHT22;15383;48.408;9.968;2023-08-08T16:13:37;18.80;68.90
28071;DHT22;15383;48.408;9.968;2023-08-08T16:16:03;18.80;68.70
28071;DHT22;15383;48.408;9.968;2023-08-08T16:18:29;18.80;68.90
28071;DHT22;15383;48.408;9.968;2023-08-08T16:20:55;18.80;69.60
28071;DHT22;15383;48.408;9.968;2023-08-08T16:23:20;18.80;69.90
28071;DHT22;15383;48.408;9.968;2023-08-08T16:25:47;18.80;69.20
28071;DHT22;15383;48.408;9.968;2023-08-08T16:28:12;18.80;69.70